createdAt,value
2019-04-10T00:00:56.964Z,1011.81
2019-04-10T00:01:57.950Z,1011.79
2019-04-10T00:02:57.798Z,1011.80
2019-04-10T00:03:56.980Z,1011.79
2019-04-10T00:04:56.985Z,1011.82
2019-04-10T00:05:56.991Z,1011.79
2019-04-10T00:07:10.436Z,1011.79
2019-04-10T00:07:57.608Z,1011.81
2019-04-10T00:08:57.005Z,1011.81
2019-04-10T00:09:57.324Z,1011.79
2019-04-10T00:10:57.017Z,1011.80
2019-04-10T00:11:57.099Z,1011.80
2019-04-10T00:12:57.922Z,1011.84
2019-04-10T00:13:57.028Z,1011.84
2019-04-10T00:14:57.083Z,1011.86
2019-04-10T00:15:57.123Z,1011.91
2019-04-10T00:16:57.044Z,1011.86
2019-04-10T00:17:57.776Z,1011.90
2019-04-10T00:18:58.076Z,1011.92
2019-04-10T00:19:58.055Z,1011.92
2019-04-10T00:20:57.067Z,1011.91
2019-04-10T00:21:57.760Z,1011.94
2019-04-10T00:22:57.074Z,1011.94
2019-04-10T00:23:57.706Z,1011.94
2019-04-10T00:24:57.082Z,1011.93
2019-04-10T00:25:57.300Z,1011.97
2019-04-10T00:26:57.093Z,1011.97
2019-04-10T00:27:57.096Z,1011.99
2019-04-10T00:28:58.074Z,1011.98
2019-04-10T00:29:57.106Z,1011.98
2019-04-10T00:30:57.727Z,1011.99
2019-04-10T00:32:00.133Z,1012.04
2019-04-10T00:32:57.122Z,1012.00
2019-04-10T00:33:57.125Z,1012.04
2019-04-10T00:34:58.178Z,1012.04
2019-04-10T00:35:57.136Z,1012.06
2019-04-10T00:36:57.544Z,1012.03
2019-04-10T00:37:57.546Z,1012.05
2019-04-10T00:38:58.008Z,1012.15
2019-04-10T00:39:57.162Z,1012.12
2019-04-10T00:40:57.547Z,1012.12
2019-04-10T00:41:57.167Z,1012.10
2019-04-10T00:42:58.604Z,1012.12
2019-04-10T00:43:57.384Z,1012.12
2019-04-10T00:44:57.184Z,1012.12
2019-04-10T00:45:57.862Z,1012.15
2019-04-10T00:46:57.189Z,1012.14
2019-04-10T00:47:57.454Z,1012.14
2019-04-10T00:48:57.203Z,1012.13
2019-04-10T00:49:57.915Z,1012.14
2019-04-10T00:50:57.210Z,1012.14
2019-04-10T00:51:57.553Z,1012.15
2019-04-10T00:52:57.219Z,1012.16
2019-04-10T00:53:57.321Z,1012.17
2019-04-10T00:54:57.513Z,1012.17
2019-04-10T00:55:57.234Z,1012.13
2019-04-10T00:56:57.280Z,1012.15
2019-04-10T00:57:58.137Z,1012.16
2019-04-10T00:58:57.250Z,1012.21
2019-04-10T00:59:57.262Z,1012.22
2019-04-10T01:00:57.276Z,1012.24
2019-04-10T01:01:58.257Z,1012.21
2019-04-10T01:02:57.270Z,1012.25
2019-04-10T01:03:58.043Z,1012.23
2019-04-10T01:04:58.415Z,1012.22
2019-04-10T01:05:57.604Z,1012.19
2019-04-10T01:06:57.288Z,1012.26
2019-04-10T01:07:57.293Z,1012.28
2019-04-10T01:08:57.310Z,1012.29
2019-04-10T01:09:57.589Z,1012.25
2019-04-10T01:10:57.312Z,1012.22
2019-04-10T01:11:57.319Z,1012.24
2019-04-10T01:12:57.318Z,1012.28
2019-04-10T01:13:57.335Z,1012.26
2019-04-10T01:14:58.194Z,1012.30
2019-04-10T01:15:57.333Z,1012.30
2019-04-10T01:16:57.863Z,1012.38
2019-04-10T01:17:57.343Z,1012.36
2019-04-10T01:18:57.420Z,1012.31
2019-04-10T01:19:58.483Z,1012.34
2019-04-10T01:20:57.746Z,1012.36
2019-04-10T01:21:57.361Z,1012.38
2019-04-10T01:22:57.412Z,1012.35
2019-04-10T01:23:57.408Z,1012.36
2019-04-10T01:24:57.782Z,1012.40
2019-04-10T01:25:57.381Z,1012.32
2019-04-10T01:26:57.384Z,1012.44
2019-04-10T01:27:58.381Z,1012.42
2019-04-10T01:28:57.542Z,1012.43
2019-04-10T01:29:58.006Z,1012.49
2019-04-10T01:30:57.405Z,1012.45
2019-04-10T01:31:57.409Z,1012.45
2019-04-10T01:32:58.483Z,1012.41
2019-04-10T01:33:57.419Z,1012.47
2019-04-10T01:34:58.750Z,1012.47
2019-04-10T01:35:58.287Z,1012.47
2019-04-10T01:36:58.325Z,1012.50
2019-04-10T01:38:00.803Z,1012.48
2019-04-10T01:38:57.855Z,1012.47
2019-04-10T01:39:57.449Z,1012.49
2019-04-10T01:40:57.458Z,1012.46
2019-04-10T01:41:58.431Z,1012.48
2019-04-10T01:43:08.150Z,1012.49
2019-04-10T01:43:57.468Z,1012.57
2019-04-10T01:44:57.476Z,1012.51
2019-04-10T01:45:57.895Z,1012.55
2019-04-10T01:46:57.586Z,1012.55
2019-04-10T01:47:57.540Z,1012.55
2019-04-10T01:48:57.567Z,1012.58
2019-04-10T01:49:57.926Z,1012.54
2019-04-10T01:50:57.503Z,1012.51
2019-04-10T01:51:57.508Z,1012.56
2019-04-10T01:52:57.577Z,1012.60
2019-04-10T01:53:58.519Z,1012.63
2019-04-10T01:54:57.672Z,1012.60
2019-04-10T01:55:57.665Z,1012.59
2019-04-10T01:56:57.801Z,1012.56
2019-04-10T01:57:57.538Z,1012.53
2019-04-10T01:58:57.541Z,1012.60
2019-04-10T01:59:58.308Z,1012.55
2019-04-10T02:00:57.553Z,1012.57
2019-04-10T02:01:57.558Z,1012.61
2019-04-10T02:02:57.984Z,1012.71
2019-04-10T02:03:58.499Z,1012.65
2019-04-10T02:04:58.450Z,1012.63
2019-04-10T02:05:57.774Z,1012.66
2019-04-10T02:06:57.981Z,1012.67
2019-04-10T02:08:05.266Z,1012.66
2019-04-10T02:08:58.356Z,1012.72
2019-04-10T02:09:57.596Z,1012.69
2019-04-10T02:10:58.648Z,1012.65
2019-04-10T02:11:58.525Z,1012.69
2019-04-10T02:12:57.610Z,1012.72
2019-04-10T02:13:58.276Z,1012.71
2019-04-10T02:14:57.620Z,1012.73
2019-04-10T02:15:58.531Z,1012.77
2019-04-10T02:16:57.629Z,1012.74
2019-04-10T02:17:57.634Z,1012.74
2019-04-10T02:18:57.794Z,1012.78
2019-04-10T02:19:58.662Z,1012.72
2019-04-10T02:20:57.649Z,1012.81
2019-04-10T02:21:58.222Z,1012.80
2019-04-10T02:22:58.230Z,1012.80
2019-04-10T02:23:58.628Z,1012.80
2019-04-10T02:24:57.774Z,1012.84
2019-04-10T02:25:57.677Z,1012.77
2019-04-10T02:26:58.186Z,1012.75
2019-04-10T02:27:58.520Z,1012.78
2019-04-10T02:28:57.688Z,1012.75
2019-04-10T02:29:57.941Z,1012.79
2019-04-10T02:30:58.793Z,1012.87
2019-04-10T02:31:57.708Z,1012.84
2019-04-10T02:32:57.958Z,1012.82
2019-04-10T02:33:59.529Z,1012.86
2019-04-10T02:34:58.270Z,1012.83
2019-04-10T02:35:59.077Z,1012.88
2019-04-10T02:36:58.631Z,1012.87
2019-04-10T02:37:58.955Z,1012.89
2019-04-10T02:39:08.524Z,1012.87
2019-04-10T02:40:01.041Z,1012.87
2019-04-10T02:40:57.951Z,1012.84
2019-04-10T02:41:58.367Z,1012.79
2019-04-10T02:42:59.058Z,1012.88
2019-04-10T02:43:58.071Z,1012.81
2019-04-10T02:44:57.915Z,1012.81
2019-04-10T02:45:57.832Z,1012.86
2019-04-10T02:46:59.577Z,1012.83
2019-04-10T02:47:59.393Z,1012.85
2019-04-10T02:48:58.190Z,1012.88
2019-04-10T02:49:57.790Z,1012.86
2019-04-10T02:50:57.799Z,1012.84
2019-04-10T02:51:58.873Z,1012.84
2019-04-10T02:52:59.208Z,1012.87
2019-04-10T02:53:58.156Z,1012.87
2019-04-10T02:54:57.921Z,1012.91
2019-04-10T02:55:59.796Z,1012.90
2019-04-10T02:56:57.825Z,1012.91
2019-04-10T02:57:58.708Z,1012.91
2019-04-10T02:58:58.650Z,1012.96
2019-04-10T02:59:57.841Z,1012.93
2019-04-10T03:00:59.062Z,1012.94
2019-04-10T03:01:58.001Z,1012.91
2019-04-10T03:02:59.298Z,1012.91
2019-04-10T03:03:59.175Z,1012.88
2019-04-10T03:04:59.237Z,1012.97
2019-04-10T03:05:58.742Z,1012.93
2019-04-10T03:06:57.877Z,1012.95
2019-04-10T03:07:58.391Z,1012.94
2019-04-10T03:09:11.898Z,1012.96
2019-04-10T03:10:08.857Z,1012.94
2019-04-10T03:11:02.680Z,1012.98
2019-04-10T03:11:59.443Z,1012.95
2019-04-10T03:12:58.779Z,1012.98
2019-04-10T03:13:59.287Z,1013.00
2019-04-10T03:14:59.119Z,1013.02
2019-04-10T03:15:57.985Z,1013.03
2019-04-10T03:16:57.921Z,1013.01
2019-04-10T03:17:58.646Z,1013.04
2019-04-10T03:18:58.049Z,1013.02
2019-04-10T03:19:58.887Z,1013.05
2019-04-10T03:20:58.458Z,1013.01
2019-04-10T03:21:57.944Z,1013.04
2019-04-10T03:22:58.800Z,1013.11
2019-04-10T03:23:58.059Z,1013.07
2019-04-10T03:24:57.960Z,1013.08
2019-04-10T03:25:57.963Z,1013.12
2019-04-10T03:26:58.279Z,1013.11
2019-04-10T03:27:58.701Z,1013.14
2019-04-10T03:28:57.979Z,1013.16
2019-04-10T03:29:58.108Z,1013.19
2019-04-10T03:31:00.462Z,1013.16
2019-04-10T03:31:59.498Z,1013.18
2019-04-10T03:33:02.998Z,1013.17
2019-04-10T03:33:58.782Z,1013.15
2019-04-10T03:34:58.531Z,1013.26
2019-04-10T03:35:58.891Z,1013.18
2019-04-10T03:36:58.135Z,1013.19
2019-04-10T03:37:58.021Z,1013.20
2019-04-10T03:39:02.959Z,1013.23
2019-04-10T03:39:58.031Z,1013.23
2019-04-10T03:40:58.044Z,1013.22
2019-04-10T03:41:58.796Z,1013.25
2019-04-10T03:42:58.242Z,1013.24
2019-04-10T03:43:58.452Z,1013.23
2019-04-10T03:44:58.952Z,1013.23
2019-04-10T03:45:59.117Z,1013.28
2019-04-10T03:46:58.704Z,1013.29
2019-04-10T03:47:58.108Z,1013.29
2019-04-10T03:48:58.076Z,1013.32
2019-04-10T03:49:58.276Z,1013.31
2019-04-10T03:50:58.692Z,1013.29
2019-04-10T03:51:58.089Z,1013.34
2019-04-10T03:52:58.096Z,1013.30
2019-04-10T03:53:58.434Z,1013.36
2019-04-10T03:54:58.685Z,1013.34
2019-04-10T03:55:59.163Z,1013.34
2019-04-10T03:56:58.329Z,1013.42
2019-04-10T03:57:58.694Z,1013.39
2019-04-10T03:58:58.124Z,1013.41
2019-04-10T03:59:58.212Z,1013.39
2019-04-10T04:00:58.548Z,1013.38
2019-04-10T04:01:58.137Z,1013.37
2019-04-10T04:02:58.234Z,1013.52
2019-04-10T04:03:59.332Z,1013.48
2019-04-10T04:04:58.155Z,1013.55
2019-04-10T04:06:00.051Z,1013.46
2019-04-10T04:06:58.160Z,1013.46
2019-04-10T04:07:59.157Z,1013.49
2019-04-10T04:09:06.959Z,1013.51
2019-04-10T04:09:58.218Z,1013.53
2019-04-10T04:10:59.197Z,1013.54
2019-04-10T04:11:58.187Z,1013.52
2019-04-10T04:13:00.016Z,1013.53
2019-04-10T04:13:58.193Z,1013.51
2019-04-10T04:14:59.131Z,1013.54
2019-04-10T04:15:58.203Z,1013.55
2019-04-10T04:16:58.209Z,1013.56
2019-04-10T04:17:58.213Z,1013.58
2019-04-10T04:18:58.220Z,1013.57
2019-04-10T04:19:58.791Z,1013.55
2019-04-10T04:20:59.282Z,1013.60
2019-04-10T04:21:58.488Z,1013.60
2019-04-10T04:22:58.238Z,1013.62
2019-04-10T04:23:59.334Z,1013.59
2019-04-10T04:24:58.286Z,1013.61
2019-04-10T04:25:58.935Z,1013.59
2019-04-10T04:26:58.258Z,1013.64
2019-04-10T04:27:58.356Z,1013.61
2019-04-10T04:28:58.266Z,1013.65
2019-04-10T04:29:58.271Z,1013.69
2019-04-10T04:30:58.894Z,1013.71
2019-04-10T04:31:59.096Z,1013.66
2019-04-10T04:32:58.287Z,1013.72
2019-04-10T04:33:58.292Z,1013.71
2019-04-10T04:34:59.754Z,1013.73
2019-04-10T04:35:58.302Z,1013.77
2019-04-10T04:36:58.305Z,1013.79
2019-04-10T04:37:58.401Z,1013.77
2019-04-10T04:38:58.313Z,1013.75
2019-04-10T04:39:58.412Z,1013.77
2019-04-10T04:40:58.405Z,1013.75
2019-04-10T04:41:58.811Z,1013.74
2019-04-10T04:42:58.337Z,1013.76
2019-04-10T04:43:58.549Z,1013.78
2019-04-10T04:44:58.360Z,1013.80
2019-04-10T04:45:59.172Z,1013.78
2019-04-10T04:46:59.142Z,1013.78
2019-04-10T04:47:59.684Z,1013.78
2019-04-10T04:48:58.364Z,1013.82
2019-04-10T04:49:59.172Z,1013.77
2019-04-10T04:50:59.689Z,1013.80
2019-04-10T04:51:58.381Z,1013.83
2019-04-10T04:52:58.383Z,1013.84
2019-04-10T04:53:59.003Z,1013.86
2019-04-10T04:54:58.523Z,1013.85
2019-04-10T04:55:58.396Z,1013.86
2019-04-10T04:56:58.401Z,1013.87
2019-04-10T04:57:58.405Z,1013.83
2019-04-10T04:58:59.420Z,1013.85
2019-04-10T04:59:58.987Z,1013.86
2019-04-10T05:00:58.556Z,1013.85
2019-04-10T05:01:58.430Z,1013.89
2019-04-10T05:02:58.429Z,1013.87
2019-04-10T05:03:58.443Z,1013.91
2019-04-10T05:04:58.440Z,1013.85
2019-04-10T05:05:58.448Z,1013.88
2019-04-10T05:06:58.453Z,1013.86
2019-04-10T05:08:02.190Z,1013.88
2019-04-10T05:08:59.232Z,1013.93
2019-04-10T05:10:00.146Z,1013.94
2019-04-10T05:10:58.475Z,1013.93
2019-04-10T05:11:58.616Z,1013.95
2019-04-10T05:12:58.479Z,1013.90
2019-04-10T05:13:59.327Z,1013.88
2019-04-10T05:14:58.488Z,1013.92
2019-04-10T05:15:59.385Z,1013.96
2019-04-10T05:16:59.522Z,1013.91
2019-04-10T05:17:58.504Z,1013.91
2019-04-10T05:18:59.537Z,1013.89
2019-04-10T05:19:58.749Z,1013.90
2019-04-10T05:20:58.846Z,1013.92
2019-04-10T05:21:59.502Z,1013.96
2019-04-10T05:22:58.526Z,1013.89
2019-04-10T05:23:59.588Z,1013.89
2019-04-10T05:24:58.570Z,1013.95
2019-04-10T05:25:59.205Z,1013.90
2019-04-10T05:26:59.221Z,1013.95
2019-04-10T05:27:59.415Z,1013.95
2019-04-10T05:28:58.556Z,1013.92
2019-04-10T05:29:58.594Z,1013.96
2019-04-10T05:30:58.914Z,1013.95
2019-04-10T05:31:58.784Z,1014.00
2019-04-10T05:32:58.575Z,1013.95
2019-04-10T05:33:58.579Z,1014.00
2019-04-10T05:34:58.796Z,1013.97
2019-04-10T05:35:59.225Z,1013.97
2019-04-10T05:36:58.856Z,1013.96
2019-04-10T05:37:58.603Z,1014.02
2019-04-10T05:38:58.604Z,1013.97
2019-04-10T05:39:59.224Z,1014.02
2019-04-10T05:40:59.232Z,1014.05
2019-04-10T05:41:59.858Z,1014.02
2019-04-10T05:42:59.597Z,1014.03
2019-04-10T05:43:58.639Z,1014.07
2019-04-10T05:44:58.719Z,1014.04
2019-04-10T05:45:59.281Z,1014.09
2019-04-10T05:46:58.642Z,1014.13
2019-04-10T05:47:59.030Z,1014.11
2019-04-10T05:48:58.653Z,1014.14
2019-04-10T05:49:59.644Z,1014.14
2019-04-10T05:51:03.028Z,1014.14
2019-04-10T05:51:58.726Z,1014.12
2019-04-10T05:52:58.673Z,1014.15
2019-04-10T05:53:58.674Z,1014.19
2019-04-10T05:54:59.858Z,1014.21
2019-04-10T05:55:58.689Z,1014.14
2019-04-10T05:56:59.003Z,1014.14
2019-04-10T05:57:59.450Z,1014.24
2019-04-10T05:58:58.700Z,1014.20
2019-04-10T05:59:58.704Z,1014.23
2019-04-10T06:00:58.910Z,1014.25
2019-04-10T06:01:58.949Z,1014.24
2019-04-10T06:02:58.720Z,1014.24
2019-04-10T06:03:58.912Z,1014.24
2019-04-10T06:04:58.728Z,1014.33
2019-04-10T06:06:01.008Z,1014.31
2019-04-10T06:06:58.959Z,1014.30
2019-04-10T06:07:59.311Z,1014.31
2019-04-10T06:08:58.748Z,1014.33
2019-04-10T06:10:04.338Z,1014.36
2019-04-10T06:10:58.761Z,1014.36
2019-04-10T06:11:58.764Z,1014.33
2019-04-10T06:12:58.768Z,1014.43
2019-04-10T06:13:59.121Z,1014.41
2019-04-10T06:14:58.881Z,1014.39
2019-04-10T06:15:59.384Z,1014.41
2019-04-10T06:17:02.501Z,1014.42
2019-04-10T06:17:58.814Z,1014.43
2019-04-10T06:18:59.774Z,1014.39
2019-04-10T06:19:58.801Z,1014.38
2019-04-10T06:20:58.955Z,1014.39
2019-04-10T06:21:58.810Z,1014.43
2019-04-10T06:22:59.156Z,1014.44
2019-04-10T06:23:58.824Z,1014.41
2019-04-10T06:24:58.827Z,1014.42
2019-04-10T06:25:58.832Z,1014.49
2019-04-10T06:26:59.720Z,1014.44
2019-04-10T06:27:59.027Z,1014.52
2019-04-10T06:28:59.009Z,1014.52
2019-04-10T06:29:59.412Z,1014.49
2019-04-10T06:30:58.854Z,1014.48
2019-04-10T06:31:58.992Z,1014.47
2019-04-10T06:32:59.898Z,1014.51
2019-04-10T06:33:58.868Z,1014.54
2019-04-10T06:34:59.557Z,1014.52
2019-04-10T06:35:58.885Z,1014.51
2019-04-10T06:36:59.843Z,1014.49
2019-04-10T06:37:58.889Z,1014.52
2019-04-10T06:38:58.891Z,1014.57
2019-04-10T06:40:10.753Z,1014.58
2019-04-10T06:40:59.951Z,1014.55
2019-04-10T06:41:58.906Z,1014.58
2019-04-10T06:42:59.427Z,1014.57
2019-04-10T06:43:58.917Z,1014.60
2019-04-10T06:44:58.922Z,1014.52
2019-04-10T06:45:59.986Z,1014.52
2019-04-10T06:46:59.947Z,1014.57
2019-04-10T06:47:58.936Z,1014.62
2019-04-10T06:48:58.941Z,1014.62
2019-04-10T06:49:58.946Z,1014.56
2019-04-10T06:50:59.830Z,1014.58
2019-04-10T06:51:59.750Z,1014.65
2019-04-10T06:52:58.959Z,1014.63
2019-04-10T06:54:04.922Z,1014.59
2019-04-10T06:54:58.969Z,1014.67
2019-04-10T06:55:58.978Z,1014.63
2019-04-10T06:56:58.982Z,1014.66
2019-04-10T06:57:59.388Z,1014.71
2019-04-10T06:58:59.007Z,1014.76
2019-04-10T06:59:59.783Z,1014.63
2019-04-10T07:01:01.544Z,1014.65
2019-04-10T07:02:13.147Z,1014.70
2019-04-10T07:02:59.008Z,1014.73
2019-04-10T07:04:02.849Z,1014.73
2019-04-10T07:05:05.005Z,1014.69
2019-04-10T07:06:07.764Z,1014.69
2019-04-10T07:07:06.553Z,1014.74
2019-04-10T07:08:07.856Z,1014.69
2019-04-10T07:08:59.186Z,1014.75
2019-04-10T07:09:59.967Z,1014.76
2019-04-10T07:11:04.720Z,1014.78
2019-04-10T07:12:01.346Z,1014.80
2019-04-10T07:12:59.640Z,1014.83
2019-04-10T07:13:59.869Z,1014.75
2019-04-10T07:14:59.746Z,1014.76
2019-04-10T07:15:59.970Z,1014.81
2019-04-10T07:17:04.243Z,1014.86
2019-04-10T07:17:59.080Z,1014.82
2019-04-10T07:19:01.579Z,1014.85
2019-04-10T07:19:59.750Z,1014.86
2019-04-10T07:21:01.450Z,1014.91
2019-04-10T07:22:01.481Z,1014.90
2019-04-10T07:22:59.592Z,1014.87
2019-04-10T07:24:04.609Z,1014.91
2019-04-10T07:24:59.116Z,1014.86
2019-04-10T07:25:59.119Z,1014.87
2019-04-10T07:27:03.258Z,1014.89
2019-04-10T07:27:59.131Z,1014.91
2019-04-10T07:28:59.138Z,1014.90
2019-04-10T07:29:59.826Z,1014.92
2019-04-10T07:31:05.056Z,1014.97
2019-04-10T07:31:59.151Z,1014.94
2019-04-10T07:32:59.327Z,1014.95
2019-04-10T07:33:59.964Z,1014.94
2019-04-10T07:35:01.064Z,1014.94
2019-04-10T07:35:59.288Z,1014.91
2019-04-10T07:37:00.203Z,1015.00
2019-04-10T07:37:59.696Z,1014.99
2019-04-10T07:38:59.295Z,1014.92
2019-04-10T07:40:01.836Z,1014.92
2019-04-10T07:40:59.194Z,1014.97
2019-04-10T07:41:59.964Z,1015.03
2019-04-10T07:42:59.203Z,1015.00
2019-04-10T07:43:59.210Z,1014.99
2019-04-10T07:44:59.214Z,1015.01
2019-04-10T07:45:59.217Z,1015.05
2019-04-10T07:47:00.752Z,1015.01
2019-04-10T07:48:00.228Z,1014.95
2019-04-10T07:48:59.233Z,1015.04
2019-04-10T07:50:00.775Z,1015.06
2019-04-10T07:50:59.242Z,1015.01
2019-04-10T07:51:59.249Z,1015.07
2019-04-10T07:52:59.821Z,1015.12
2019-04-10T07:53:59.781Z,1015.12
2019-04-10T07:54:59.262Z,1015.13
2019-04-10T07:56:06.354Z,1015.09
2019-04-10T07:56:59.944Z,1015.06
2019-04-10T07:57:59.319Z,1015.08
2019-04-10T07:59:00.455Z,1015.14
2019-04-10T07:59:59.286Z,1015.11
2019-04-10T08:00:59.291Z,1015.10
2019-04-10T08:02:00.043Z,1015.21
2019-04-10T08:02:59.540Z,1015.16
2019-04-10T08:03:59.307Z,1015.19
2019-04-10T08:05:00.112Z,1015.19
2019-04-10T08:06:00.394Z,1015.20
2019-04-10T08:06:59.321Z,1015.22
2019-04-10T08:07:59.326Z,1015.24
2019-04-10T08:08:59.332Z,1015.23
2019-04-10T08:09:59.349Z,1015.22
2019-04-10T08:10:59.499Z,1015.26
2019-04-10T08:11:59.347Z,1015.24
2019-04-10T08:13:00.306Z,1015.24
2019-04-10T08:13:59.591Z,1015.30
2019-04-10T08:14:59.364Z,1015.32
2019-04-10T08:15:59.364Z,1015.29
2019-04-10T08:16:59.593Z,1015.30
2019-04-10T08:18:00.310Z,1015.34
2019-04-10T08:18:59.760Z,1015.32
2019-04-10T08:19:59.514Z,1015.41
2019-04-10T08:20:59.391Z,1015.33
2019-04-10T08:21:59.397Z,1015.40
2019-04-10T08:22:59.563Z,1015.42
2019-04-10T08:24:00.413Z,1015.44
2019-04-10T08:25:00.166Z,1015.42
2019-04-10T08:26:00.151Z,1015.45
2019-04-10T08:26:59.421Z,1015.43
2019-04-10T08:28:00.587Z,1015.46
2019-04-10T08:28:59.431Z,1015.46
2019-04-10T08:29:59.435Z,1015.45
2019-04-10T08:30:59.441Z,1015.50
2019-04-10T08:31:59.444Z,1015.43
2019-04-10T08:33:01.292Z,1015.49
2019-04-10T08:33:59.454Z,1015.50
2019-04-10T08:35:00.359Z,1015.53
2019-04-10T08:35:59.466Z,1015.53
2019-04-10T08:36:59.700Z,1015.53
2019-04-10T08:37:59.475Z,1015.55
2019-04-10T08:38:59.479Z,1015.54
2019-04-10T08:39:59.484Z,1015.54
2019-04-10T08:41:00.644Z,1015.53
2019-04-10T08:42:00.007Z,1015.56
2019-04-10T08:42:59.954Z,1015.56
2019-04-10T08:43:59.504Z,1015.59
2019-04-10T08:45:00.522Z,1015.57
2019-04-10T08:45:59.513Z,1015.50
2019-04-10T08:47:00.172Z,1015.64
2019-04-10T08:47:59.526Z,1015.61
2019-04-10T08:49:00.205Z,1015.58
2019-04-10T08:49:59.534Z,1015.60
2019-04-10T08:50:59.539Z,1015.62
2019-04-10T08:51:59.915Z,1015.60
2019-04-10T08:53:00.000Z,1015.66
2019-04-10T08:54:00.568Z,1015.66
2019-04-10T08:54:59.657Z,1015.69
2019-04-10T08:55:59.565Z,1015.70
2019-04-10T08:56:59.568Z,1015.72
2019-04-10T08:58:00.639Z,1015.71
2019-04-10T08:58:59.578Z,1015.72
2019-04-10T09:00:00.402Z,1015.69
2019-04-10T09:01:00.669Z,1015.75
2019-04-10T09:01:59.884Z,1015.72
2019-04-10T09:03:00.297Z,1015.76
2019-04-10T09:03:59.603Z,1015.76
2019-04-10T09:04:59.608Z,1015.79
2019-04-10T09:06:00.853Z,1015.81
2019-04-10T09:07:01.401Z,1015.80
2019-04-10T09:08:00.332Z,1015.76
2019-04-10T09:08:59.636Z,1015.80
2019-04-10T09:09:59.632Z,1015.84
2019-04-10T09:11:00.865Z,1015.86
2019-04-10T09:11:59.853Z,1015.82
2019-04-10T09:13:00.046Z,1015.87
2019-04-10T09:13:59.653Z,1015.85
2019-04-10T09:14:59.661Z,1015.88
2019-04-10T09:16:00.466Z,1015.86
2019-04-10T09:17:00.675Z,1015.88
2019-04-10T09:17:59.844Z,1015.88
2019-04-10T09:18:59.675Z,1015.90
2019-04-10T09:20:00.587Z,1015.89
2019-04-10T09:20:59.687Z,1015.85
2019-04-10T09:21:59.696Z,1015.85
2019-04-10T09:23:15.559Z,1015.92
2019-04-10T09:24:00.697Z,1015.85
2019-04-10T09:25:00.687Z,1015.89
2019-04-10T09:25:59.712Z,1015.90
2019-04-10T09:27:00.547Z,1015.89
2019-04-10T09:28:00.188Z,1015.93
2019-04-10T09:28:59.726Z,1015.90
2019-04-10T09:30:00.420Z,1015.89
2019-04-10T09:30:59.736Z,1015.91
2019-04-10T09:31:59.978Z,1015.90
2019-04-10T09:33:00.701Z,1015.91
2019-04-10T09:33:59.752Z,1015.91
2019-04-10T09:35:00.334Z,1015.93
2019-04-10T09:36:00.619Z,1015.93
2019-04-10T09:36:59.979Z,1015.89
2019-04-10T09:37:59.771Z,1015.92
2019-04-10T09:38:59.777Z,1015.93
2019-04-10T09:40:00.112Z,1015.90
2019-04-10T09:40:59.787Z,1015.91
2019-04-10T09:42:00.962Z,1015.93
2019-04-10T09:42:59.846Z,1015.95
2019-04-10T09:44:00.297Z,1015.90
2019-04-10T09:45:00.413Z,1015.91
2019-04-10T09:46:00.075Z,1015.89
2019-04-10T09:47:00.064Z,1015.91
2019-04-10T09:48:00.023Z,1015.91
2019-04-10T09:49:00.465Z,1015.93
2019-04-10T09:49:59.850Z,1015.90
2019-04-10T09:51:00.296Z,1015.92
2019-04-10T09:52:00.667Z,1015.91
2019-04-10T09:53:00.046Z,1015.91
2019-04-10T09:53:59.850Z,1015.94
2019-04-10T09:54:59.855Z,1015.94
2019-04-10T09:56:00.778Z,1016.00
2019-04-10T09:56:59.866Z,1015.96
2019-04-10T09:58:00.191Z,1015.96
2019-04-10T09:59:00.883Z,1016.00
2019-04-10T10:00:00.902Z,1015.98
2019-04-10T10:01:01.457Z,1016.02
2019-04-10T10:02:00.484Z,1016.02
2019-04-10T10:02:59.894Z,1016.06
2019-04-10T10:03:59.899Z,1016.06
2019-04-10T10:05:00.053Z,1016.06
2019-04-10T10:06:00.335Z,1016.11
2019-04-10T10:06:59.914Z,1016.09
2019-04-10T10:08:00.219Z,1016.04
2019-04-10T10:09:00.530Z,1016.13
2019-04-10T10:10:01.287Z,1016.15
2019-04-10T10:10:59.933Z,1016.13
2019-04-10T10:12:01.087Z,1016.19
2019-04-10T10:13:01.143Z,1016.17
2019-04-10T10:13:59.948Z,1016.25
2019-04-10T10:15:00.223Z,1016.22
2019-04-10T10:16:00.820Z,1016.27
2019-04-10T10:17:00.215Z,1016.30
2019-04-10T10:18:01.189Z,1016.28
2019-04-10T10:18:59.973Z,1016.33
2019-04-10T10:19:59.980Z,1016.31
2019-04-10T10:20:59.982Z,1016.32
2019-04-10T10:22:02.251Z,1016.39
2019-04-10T10:23:01.214Z,1016.35
2019-04-10T10:24:00.346Z,1016.33
2019-04-10T10:25:00.004Z,1016.33
2019-04-10T10:26:00.007Z,1016.34
2019-04-10T10:27:00.015Z,1016.34
2019-04-10T10:28:00.017Z,1016.34
2019-04-10T10:29:00.681Z,1016.33
2019-04-10T10:30:00.038Z,1016.40
2019-04-10T10:31:00.031Z,1016.43
2019-04-10T10:32:00.351Z,1016.44
2019-04-10T10:33:00.043Z,1016.46
2019-04-10T10:34:00.049Z,1016.45
2019-04-10T10:35:01.017Z,1016.43
2019-04-10T10:36:00.058Z,1016.45
2019-04-10T10:37:00.165Z,1016.45
2019-04-10T10:38:01.095Z,1016.45
2019-04-10T10:39:06.815Z,1016.51
2019-04-10T10:40:01.266Z,1016.52
2019-04-10T10:41:01.124Z,1016.52
2019-04-10T10:42:00.221Z,1016.55
2019-04-10T10:43:00.321Z,1016.51
2019-04-10T10:44:00.604Z,1016.51
2019-04-10T10:45:00.571Z,1016.54
2019-04-10T10:46:00.930Z,1016.55
2019-04-10T10:47:00.111Z,1016.59
2019-04-10T10:48:01.196Z,1016.62
2019-04-10T10:49:00.144Z,1016.63
2019-04-10T10:50:01.091Z,1016.67
2019-04-10T10:51:00.301Z,1016.63
2019-04-10T10:52:00.134Z,1016.66
2019-04-10T10:53:00.141Z,1016.68
2019-04-10T10:54:02.636Z,1016.75
2019-04-10T10:55:01.041Z,1016.68
2019-04-10T10:56:00.158Z,1016.69
2019-04-10T10:57:00.569Z,1016.74
2019-04-10T10:58:00.164Z,1016.71
2019-04-10T10:59:00.873Z,1016.75
2019-04-10T11:00:00.174Z,1016.75
2019-04-10T11:01:00.180Z,1016.72
2019-04-10T11:02:00.304Z,1016.72
2019-04-10T11:03:00.259Z,1016.76
2019-04-10T11:04:00.194Z,1016.75
2019-04-10T11:05:02.911Z,1016.71
2019-04-10T11:06:00.502Z,1016.79
2019-04-10T11:07:01.192Z,1016.84
2019-04-10T11:08:00.214Z,1016.80
2019-04-10T11:09:00.222Z,1016.88
2019-04-10T11:10:01.348Z,1016.83
2019-04-10T11:11:00.865Z,1016.88
2019-04-10T11:12:00.234Z,1016.88
2019-04-10T11:13:00.238Z,1016.88
2019-04-10T11:14:01.217Z,1016.93
2019-04-10T11:15:01.966Z,1016.94
2019-04-10T11:16:03.854Z,1016.95
2019-04-10T11:17:01.431Z,1016.92
2019-04-10T11:18:00.487Z,1016.93
2019-04-10T11:19:00.268Z,1016.97
2019-04-10T11:20:02.193Z,1017.00
2019-04-10T11:21:04.600Z,1017.04
2019-04-10T11:22:00.283Z,1016.98
2019-04-10T11:23:00.495Z,1017.04
2019-04-10T11:24:01.016Z,1017.07
2019-04-10T11:25:00.568Z,1017.08
2019-04-10T11:26:00.303Z,1017.03
2019-04-10T11:27:00.307Z,1017.06
2019-04-10T11:28:00.344Z,1017.10
2019-04-10T11:29:01.553Z,1017.12
2019-04-10T11:30:01.463Z,1017.08
2019-04-10T11:31:01.392Z,1017.10
2019-04-10T11:32:01.580Z,1017.13
2019-04-10T11:33:00.338Z,1017.12
2019-04-10T11:34:00.342Z,1017.09
2019-04-10T11:35:00.374Z,1017.11
2019-04-10T11:36:01.485Z,1017.12
2019-04-10T11:38:01.398Z,1017.14
2019-04-10T11:40:01.240Z,1017.19
2019-04-10T11:41:00.383Z,1017.20
2019-04-10T11:42:00.499Z,1017.19
2019-04-10T11:43:03.527Z,1017.21
2019-04-10T11:44:00.390Z,1017.23
2019-04-10T11:45:01.809Z,1017.16
2019-04-10T11:46:02.541Z,1017.25
2019-04-10T11:47:00.404Z,1017.22
2019-04-10T11:48:02.273Z,1017.25
2019-04-10T11:49:00.946Z,1017.28
2019-04-10T11:50:01.596Z,1017.29
2019-04-10T11:51:01.132Z,1017.23
2019-04-10T11:52:01.796Z,1017.31
2019-04-10T11:53:02.096Z,1017.34
2019-04-10T11:54:02.237Z,1017.34
2019-04-10T11:55:07.063Z,1017.32
2019-04-10T11:56:05.281Z,1017.35
2019-04-10T11:57:03.251Z,1017.36
2019-04-10T11:58:00.738Z,1017.29
2019-04-10T11:59:01.648Z,1017.34
2019-04-10T12:00:02.532Z,1017.37
2019-04-10T12:01:02.555Z,1017.32
2019-04-10T12:02:05.621Z,1017.36
2019-04-10T12:03:01.334Z,1017.32
2019-04-10T12:04:02.559Z,1017.36
2019-04-10T12:05:07.419Z,1017.28
2019-04-10T12:06:03.704Z,1017.35
2019-04-10T12:07:02.091Z,1017.37
2019-04-10T12:12:01.497Z,1017.37